In Rescue
 
Open Full Screen Window  High Contrast Mode
Wind Gusting 00 knots
03
July 01, 2022 8:58 AM EDT
Weather Information
Wind Direction
  220 °
Wind Speed
  03 kt (3 mph)
Wind Gust
  00 kt (0 mph)
Altimeter
30.03 in
Visibility
10 SM
Temperature
24° C
75° F
Dewpoint
16° C
61° F
Humidity
61%
1hr Rain Fall
00.00 in.
24hr Rain Fall
00.00 in.
Sky Condition
Scattered @ 6,000 ft
VFR

METAR KPOV 011258Z AUTO 22003KT 10SM SCT060 24/16 A3003 RMK AO2 T02400163 PWINO

FAA Disclaimer: The data displayed is for advisory purposes only and is not to be used for flight planning or operations.